createdAt,value
2023-05-13T00:01:31.908Z,81.10
2023-05-13T00:04:00.374Z,81.30
2023-05-13T00:06:28.584Z,81.40
2023-05-13T00:08:57.106Z,81.50
2023-05-13T00:11:25.622Z,81.80
2023-05-13T00:13:54.327Z,82.00
2023-05-13T00:16:25.560Z,82.20
2023-05-13T00:18:54.353Z,82.30
2023-05-13T00:21:23.546Z,82.40
2023-05-13T00:23:52.037Z,82.60
2023-05-13T00:26:20.266Z,82.70
2023-05-13T00:28:48.747Z,82.90
2023-05-13T00:31:16.952Z,83.00
2023-05-13T00:33:46.975Z,83.10
2023-05-13T00:36:15.363Z,83.30
2023-05-13T00:38:44.338Z,83.50
2023-05-13T00:41:13.765Z,83.50
2023-05-13T00:43:42.509Z,83.60
2023-05-13T00:46:10.908Z,83.70
2023-05-13T00:48:39.986Z,83.90
2023-05-13T00:51:09.645Z,83.90
2023-05-13T00:53:40.212Z,84.10
2023-05-13T00:56:08.638Z,84.30
2023-05-13T00:58:37.183Z,84.50
2023-05-13T01:01:14.531Z,84.60
2023-05-13T01:03:51.613Z,84.80
2023-05-13T01:06:26.282Z,84.90
2023-05-13T01:09:09.185Z,85.10
2023-05-13T01:11:41.574Z,85.40
2023-05-13T01:14:13.416Z,85.40
2023-05-13T01:16:47.281Z,85.60
2023-05-13T01:19:27.273Z,85.80
2023-05-13T01:21:56.882Z,86.00
2023-05-13T01:24:25.392Z,86.10
2023-05-13T01:26:53.752Z,86.30
2023-05-13T01:29:22.272Z,86.50
2023-05-13T01:31:51.884Z,86.80
2023-05-13T01:34:21.832Z,86.90
2023-05-13T01:36:50.183Z,87.10
2023-05-13T01:39:20.871Z,87.40
2023-05-13T01:41:49.382Z,87.60
2023-05-13T01:44:18.047Z,87.70
2023-05-13T01:46:46.552Z,87.90
2023-05-13T01:49:15.012Z,88.10
2023-05-13T01:51:43.369Z,88.20
2023-05-13T01:54:11.990Z,88.40
2023-05-13T01:56:41.503Z,88.60
2023-05-13T01:59:11.066Z,88.70
2023-05-13T02:01:40.588Z,88.80
2023-05-13T02:04:09.118Z,89.00
2023-05-13T02:06:37.228Z,89.10
2023-05-13T02:09:05.791Z,90.10
2023-05-13T02:11:33.904Z,90.20
2023-05-13T02:14:03.735Z,90.30
2023-05-13T02:16:32.927Z,90.30
2023-05-13T02:19:01.596Z,90.40
2023-05-13T02:21:29.966Z,90.50
2023-05-13T02:23:58.447Z,90.50
2023-05-13T02:26:26.813Z,90.90
2023-05-13T02:28:55.294Z,90.60
2023-05-13T02:31:24.911Z,90.60
2023-05-13T02:33:53.384Z,90.70
2023-05-13T02:36:21.669Z,90.70
2023-05-13T02:38:50.175Z,90.80
2023-05-13T02:41:18.355Z,90.90
2023-05-13T02:43:46.936Z,90.90
2023-05-13T02:46:15.198Z,90.90
2023-05-13T02:48:45.031Z,91.00
2023-05-13T02:51:13.183Z,91.10
2023-05-13T02:53:41.861Z,91.10
2023-05-13T02:56:10.067Z,91.20
2023-05-13T02:58:38.611Z,91.30
2023-05-13T03:01:06.951Z,91.30
2023-05-13T03:03:35.576Z,91.30
2023-05-13T03:06:05.592Z,91.30
2023-05-13T03:08:34.101Z,91.40
2023-05-13T03:11:02.762Z,91.40
2023-05-13T03:13:31.278Z,91.50
2023-05-13T03:15:59.567Z,91.50
2023-05-13T03:18:28.832Z,91.60
2023-05-13T03:20:57.188Z,91.60
2023-05-13T03:23:27.100Z,91.60
2023-05-13T03:25:55.308Z,91.60
2023-05-13T03:28:26.860Z,91.60
2023-05-13T03:30:55.263Z,91.50
2023-05-13T03:33:23.810Z,91.00
2023-05-13T03:35:51.979Z,90.80
2023-05-13T03:38:20.445Z,90.70
2023-05-13T03:40:50.153Z,90.50
2023-05-13T03:43:18.865Z,90.30
2023-05-13T03:45:48.573Z,90.20
2023-05-13T03:48:17.217Z,90.00
2023-05-13T03:50:45.703Z,89.80
2023-05-13T03:53:14.363Z,89.50
2023-05-13T03:55:42.557Z,89.00
2023-05-13T03:58:16.595Z,88.50
2023-05-13T04:00:47.563Z,88.10
2023-05-13T04:03:17.367Z,87.80
2023-05-13T04:05:48.091Z,87.50
2023-05-13T04:08:16.941Z,87.50
2023-05-13T04:10:45.346Z,87.40
2023-05-13T04:13:15.258Z,87.20
2023-05-13T04:15:43.509Z,86.80
2023-05-13T04:18:12.301Z,86.30
2023-05-13T04:20:40.787Z,86.00
2023-05-13T04:23:10.530Z,85.90
2023-05-13T04:25:38.813Z,85.90
2023-05-13T04:28:07.453Z,86.10
2023-05-13T04:30:37.281Z,86.20
2023-05-13T04:33:06.770Z,86.10
2023-05-13T04:35:35.176Z,86.30
2023-05-13T04:38:03.813Z,86.40
2023-05-13T04:40:32.198Z,86.60
2023-05-13T04:43:00.773Z,86.60
2023-05-13T04:45:29.425Z,86.10
2023-05-13T04:47:59.296Z,85.40
2023-05-13T04:50:27.744Z,84.60
2023-05-13T04:52:56.690Z,83.40
2023-05-13T04:55:27.350Z,82.10
2023-05-13T04:57:56.302Z,81.00
2023-05-13T05:00:25.454Z,79.90
2023-05-13T05:02:54.013Z,78.80
2023-05-13T05:05:23.767Z,77.80
2023-05-13T05:07:52.330Z,76.60
2023-05-13T05:10:20.905Z,75.70
2023-05-13T05:12:49.669Z,75.10
2023-05-13T05:15:17.807Z,74.40
2023-05-13T05:17:46.628Z,73.60
2023-05-13T05:20:14.858Z,72.90
2023-05-13T05:22:44.681Z,72.20
2023-05-13T05:25:12.947Z,71.40
2023-05-13T05:27:41.385Z,70.80
2023-05-13T05:30:11.434Z,70.00
2023-05-13T05:32:40.017Z,69.60
2023-05-13T05:35:09.057Z,68.80
2023-05-13T05:37:37.616Z,68.30
2023-05-13T05:40:08.793Z,67.90
2023-05-13T05:42:38.052Z,67.00
2023-05-13T05:45:06.966Z,66.50
2023-05-13T05:47:35.397Z,66.20
2023-05-13T05:50:03.631Z,66.70
2023-05-13T05:52:32.103Z,65.40
2023-05-13T05:55:00.383Z,65.10
2023-05-13T05:57:30.552Z,64.70
2023-05-13T05:59:58.836Z,64.00
2023-05-13T06:02:27.466Z,63.70
2023-05-13T06:04:55.817Z,63.40
2023-05-13T06:07:24.260Z,63.90
2023-05-13T06:09:52.515Z,63.10
2023-05-13T06:12:20.957Z,63.00
2023-05-13T06:14:50.545Z,62.70
2023-05-13T06:17:19.019Z,62.50
2023-05-13T06:19:47.257Z,61.90
2023-05-13T06:22:16.081Z,61.40
2023-05-13T06:24:44.884Z,61.10
2023-05-13T06:27:13.558Z,61.00
2023-05-13T06:29:41.782Z,60.60
2023-05-13T06:32:11.668Z,60.20
2023-05-13T06:34:40.060Z,60.00
2023-05-13T06:37:08.635Z,60.00
2023-05-13T06:39:36.866Z,59.80
2023-05-13T06:42:06.034Z,60.00
2023-05-13T06:44:34.318Z,60.00
2023-05-13T06:47:04.958Z,59.70
2023-05-13T06:49:35.082Z,59.40
2023-05-13T06:52:03.921Z,58.90
2023-05-13T06:54:32.357Z,58.80
2023-05-13T06:57:00.841Z,58.80
2023-05-13T06:59:30.328Z,59.20
2023-05-13T07:01:58.795Z,59.70
2023-05-13T07:04:26.912Z,60.00
2023-05-13T07:06:56.715Z,60.20
2023-05-13T07:09:25.484Z,60.50
2023-05-13T07:11:53.997Z,60.90
2023-05-13T07:14:22.286Z,61.10
2023-05-13T07:16:50.828Z,61.30
2023-05-13T07:19:19.200Z,61.00
2023-05-13T07:21:47.949Z,60.90
2023-05-13T07:24:17.547Z,60.80
2023-05-13T07:26:46.089Z,60.60
2023-05-13T07:29:14.430Z,60.00
2023-05-13T07:31:42.965Z,59.50
2023-05-13T07:34:11.259Z,58.90
2023-05-13T07:36:39.803Z,57.80
2023-05-13T07:39:08.721Z,57.40
2023-05-13T07:41:38.940Z,56.30
2023-05-13T07:44:11.710Z,55.40
2023-05-13T07:46:40.977Z,54.90
2023-05-13T07:49:09.254Z,54.20
2023-05-13T07:51:37.906Z,54.40
2023-05-13T07:54:06.255Z,53.70
2023-05-13T07:56:34.719Z,53.10
2023-05-13T07:59:04.331Z,53.20
2023-05-13T08:01:32.948Z,52.90
2023-05-13T08:04:01.548Z,52.40
2023-05-13T08:06:30.226Z,52.70
2023-05-13T08:08:58.402Z,52.80
2023-05-13T08:11:26.923Z,52.70
2023-05-13T08:13:55.276Z,52.60
2023-05-13T08:16:25.146Z,52.60
2023-05-13T08:18:53.364Z,52.40
2023-05-13T08:21:22.006Z,52.20
2023-05-13T08:23:51.017Z,51.80
2023-05-13T08:26:19.526Z,51.90
2023-05-13T08:28:48.268Z,51.10
2023-05-13T08:31:17.079Z,50.80
2023-05-13T08:33:48.579Z,51.00
2023-05-13T08:36:17.220Z,51.20
2023-05-13T08:38:47.605Z,51.20
2023-05-13T08:41:17.046Z,51.10
2023-05-13T08:43:45.569Z,50.50
2023-05-13T08:46:14.821Z,50.50
2023-05-13T08:48:43.964Z,50.70
2023-05-13T08:51:14.053Z,50.30
2023-05-13T08:53:44.060Z,49.80
2023-05-13T08:56:13.183Z,49.90
2023-05-13T08:58:42.377Z,49.30
2023-05-13T09:01:11.253Z,48.80
2023-05-13T09:03:53.394Z,49.10
2023-05-13T09:06:23.302Z,49.00
2023-05-13T09:08:52.107Z,49.50
2023-05-13T09:11:20.877Z,49.70
2023-05-13T09:13:58.445Z,49.60
2023-05-13T09:16:29.087Z,49.10
2023-05-13T09:18:59.997Z,49.00
2023-05-13T09:21:32.176Z,49.10
2023-05-13T09:24:11.600Z,49.20
2023-05-13T09:26:41.480Z,49.00
2023-05-13T09:29:23.357Z,48.90
2023-05-13T09:31:53.526Z,48.30
2023-05-13T09:34:30.183Z,48.40
2023-05-13T09:37:04.643Z,49.00
2023-05-13T09:39:34.492Z,49.60
2023-05-13T09:42:05.500Z,50.00
2023-05-13T09:44:35.066Z,50.60
2023-05-13T09:47:03.725Z,50.80
2023-05-13T09:49:33.587Z,51.00
2023-05-13T09:52:04.054Z,51.30
2023-05-13T09:54:36.760Z,51.70
2023-05-13T09:57:05.963Z,51.90
2023-05-13T09:59:34.503Z,52.10
2023-05-13T10:02:06.441Z,52.20
2023-05-13T10:04:34.932Z,52.40
2023-05-13T10:07:05.996Z,52.50
2023-05-13T10:09:38.249Z,52.60
2023-05-13T10:12:09.631Z,52.90
2023-05-13T10:14:39.296Z,53.10
2023-05-13T10:17:09.325Z,53.10
2023-05-13T10:19:38.125Z,53.10
2023-05-13T10:22:09.030Z,53.00
2023-05-13T10:24:39.010Z,53.50
2023-05-13T10:27:08.413Z,53.50
2023-05-13T10:29:38.509Z,52.90
2023-05-13T10:32:09.058Z,52.80
2023-05-13T10:34:39.347Z,52.60
2023-05-13T10:37:48.271Z,52.70
2023-05-13T10:40:40.583Z,52.80
2023-05-13T10:43:18.228Z,52.90
2023-05-13T10:45:48.611Z,53.00
2023-05-13T10:48:18.073Z,53.20
2023-05-13T10:50:54.262Z,53.40
2023-05-13T10:53:29.100Z,53.40
2023-05-13T10:55:59.310Z,52.90
2023-05-13T10:58:31.545Z,52.70
2023-05-13T11:01:15.737Z,52.60
2023-05-13T11:03:53.176Z,52.60
2023-05-13T11:06:36.845Z,52.70
2023-05-13T11:09:07.287Z,52.80
2023-05-13T11:11:36.808Z,53.00
2023-05-13T11:14:15.119Z,53.40
2023-05-13T11:16:47.859Z,53.50
2023-05-13T11:19:28.966Z,53.10
2023-05-13T11:21:59.850Z,53.40
2023-05-13T11:24:28.479Z,53.50
2023-05-13T11:26:57.764Z,53.10
2023-05-13T11:29:34.332Z,53.20
2023-05-13T11:32:05.129Z,53.30
2023-05-13T11:34:35.546Z,53.20
2023-05-13T11:37:12.070Z,53.10
2023-05-13T11:39:42.884Z,53.40
2023-05-13T11:42:12.015Z,53.00
2023-05-13T11:44:46.962Z,52.90
2023-05-13T11:47:15.731Z,52.50
2023-05-13T11:49:45.575Z,52.20
2023-05-13T11:52:16.608Z,51.90
2023-05-13T11:54:47.541Z,51.70
2023-05-13T11:57:19.686Z,51.80
2023-05-13T11:59:56.133Z,51.80
2023-05-13T12:02:26.002Z,51.80
2023-05-13T12:04:55.074Z,51.90
2023-05-13T12:07:26.575Z,51.70
2023-05-13T12:09:57.880Z,51.80
2023-05-13T12:12:27.824Z,51.80
2023-05-13T12:14:57.801Z,51.80
2023-05-13T12:17:26.685Z,51.90
2023-05-13T12:20:12.729Z,51.90
2023-05-13T12:22:57.837Z,51.90
2023-05-13T12:25:41.049Z,51.80
2023-05-13T12:28:11.214Z,51.90
2023-05-13T12:30:41.284Z,52.00
2023-05-13T12:33:14.828Z,51.80
2023-05-13T12:35:44.249Z,51.90
2023-05-13T12:38:18.447Z,52.00
2023-05-13T12:40:47.422Z,52.00
2023-05-13T12:43:16.959Z,52.00
2023-05-13T12:45:47.276Z,51.80
2023-05-13T12:48:15.975Z,51.70
2023-05-13T12:50:44.501Z,51.60
2023-05-13T12:53:12.852Z,51.60
2023-05-13T12:55:42.652Z,51.30
2023-05-13T12:58:13.803Z,51.30
2023-05-13T13:00:42.355Z,51.40
2023-05-13T13:03:11.195Z,51.20
2023-05-13T13:05:39.819Z,51.20
2023-05-13T13:08:08.078Z,51.10
2023-05-13T13:10:37.075Z,50.90
2023-05-13T13:13:06.662Z,51.00
2023-05-13T13:15:35.183Z,51.90
2023-05-13T13:18:03.459Z,51.20
2023-05-13T13:20:32.079Z,51.10
2023-05-13T13:23:02.131Z,52.00
2023-05-13T13:25:30.767Z,51.40
2023-05-13T13:27:59.120Z,51.30
2023-05-13T13:30:29.147Z,51.20
2023-05-13T13:32:57.383Z,51.20
2023-05-13T13:35:26.105Z,51.10
2023-05-13T13:37:56.033Z,50.80
2023-05-13T13:40:24.640Z,50.80
2023-05-13T13:42:53.176Z,50.70
2023-05-13T13:45:24.126Z,51.10
2023-05-13T13:47:53.857Z,51.50
2023-05-13T13:50:22.851Z,52.10
2023-05-13T13:52:52.386Z,52.40
2023-05-13T13:55:21.254Z,52.90
2023-05-13T13:57:49.542Z,53.10
2023-05-13T14:00:18.378Z,53.50
2023-05-13T14:02:47.025Z,53.50
2023-05-13T14:05:17.364Z,53.40
2023-05-13T14:07:46.397Z,53.30
2023-05-13T14:10:15.007Z,53.40
2023-05-13T14:12:43.240Z,54.20
2023-05-13T14:15:12.548Z,53.40
2023-05-13T14:17:40.888Z,53.40
2023-05-13T14:20:12.201Z,53.20
2023-05-13T14:22:41.793Z,53.20
2023-05-13T14:25:11.099Z,53.00
2023-05-13T14:27:39.309Z,52.70
2023-05-13T14:30:09.626Z,52.60
2023-05-13T14:32:37.839Z,52.40
2023-05-13T14:35:07.384Z,52.30
2023-05-13T14:37:35.837Z,52.00
2023-05-13T14:40:07.021Z,51.80
2023-05-13T14:42:35.240Z,51.60
2023-05-13T14:45:03.750Z,51.20
2023-05-13T14:47:32.236Z,51.20
2023-05-13T14:50:01.103Z,51.10
2023-05-13T14:52:29.365Z,51.10
2023-05-13T14:54:58.045Z,51.10
2023-05-13T14:57:27.796Z,51.10
2023-05-13T14:59:58.165Z,51.40
2023-05-13T15:02:28.290Z,51.50
2023-05-13T15:04:57.020Z,51.50
2023-05-13T17:28:22.158Z,59.90
2023-05-13T17:30:50.969Z,60.00
2023-05-13T17:33:19.763Z,60.30
2023-05-13T17:35:48.596Z,60.50
2023-05-13T17:38:17.035Z,60.80
2023-05-13T17:40:45.821Z,61.10
2023-05-13T17:43:14.663Z,61.30
2023-05-13T17:45:45.529Z,61.80
2023-05-13T17:48:14.123Z,62.20
2023-05-13T17:50:43.134Z,62.40
2023-05-13T17:53:11.672Z,62.70
2023-05-13T17:55:40.498Z,62.90
2023-05-13T17:58:09.162Z,63.20
2023-05-13T18:00:38.079Z,63.60
2023-05-13T18:03:08.288Z,64.00
2023-05-13T18:05:37.217Z,64.40
2023-05-13T18:08:06.040Z,64.90
2023-05-13T18:10:34.833Z,65.30
2023-05-13T18:13:04.230Z,65.70
2023-05-13T18:15:33.043Z,66.20
2023-05-13T18:18:03.620Z,66.70
2023-05-13T18:20:34.389Z,67.10
2023-05-13T18:23:02.950Z,67.50
2023-05-13T18:25:34.675Z,68.00
2023-05-13T18:28:04.842Z,69.00
2023-05-13T18:30:33.543Z,70.20
2023-05-13T18:33:02.008Z,70.80
2023-05-13T18:35:30.897Z,71.40
2023-05-13T18:38:00.709Z,71.80
2023-05-13T18:40:29.796Z,72.20
2023-05-13T18:42:58.285Z,72.50
2023-05-13T18:45:27.239Z,72.90
2023-05-13T18:47:55.916Z,73.30
2023-05-13T18:50:26.109Z,73.70
2023-05-13T18:57:17.304Z,74.70
2023-05-13T18:59:48.819Z,74.90
2023-05-13T19:02:17.910Z,75.30
2023-05-13T19:04:47.267Z,75.70
2023-05-13T19:07:17.980Z,76.00
2023-05-13T19:09:48.555Z,76.40
2023-05-13T19:12:18.805Z,76.80
2023-05-13T19:14:48.009Z,76.90
2023-05-13T19:17:16.750Z,77.10
2023-05-13T19:19:45.804Z,77.20
2023-05-13T19:22:17.720Z,77.40
2023-05-13T19:24:49.745Z,77.60
2023-05-13T19:27:20.339Z,77.80
2023-05-13T19:29:57.170Z,77.90
2023-05-13T19:32:26.342Z,78.10
2023-05-13T19:34:56.242Z,78.40
2023-05-13T19:37:26.488Z,78.40
2023-05-13T19:39:56.448Z,78.60
2023-05-13T19:42:27.592Z,78.70
2023-05-13T19:44:56.856Z,79.00
2023-05-13T19:47:27.169Z,78.90
2023-05-13T19:49:56.307Z,79.00
2023-05-13T19:52:26.737Z,79.20
2023-05-13T19:54:56.001Z,79.30
2023-05-13T19:57:28.614Z,79.30
2023-05-13T20:00:00.297Z,79.30
2023-05-13T20:02:29.035Z,79.70
2023-05-13T20:04:58.737Z,80.20
2023-05-13T20:07:28.369Z,80.20
2023-05-13T20:09:57.663Z,80.00
2023-05-13T20:12:28.181Z,79.90
2023-05-13T20:14:59.175Z,79.80
2023-05-13T20:17:30.285Z,79.70
2023-05-13T20:19:59.980Z,79.70
2023-05-13T20:22:32.120Z,79.70
2023-05-13T20:25:01.228Z,79.80
2023-05-13T20:27:32.785Z,79.80
2023-05-13T20:30:02.604Z,80.00
2023-05-13T20:32:32.697Z,80.20
2023-05-13T20:35:02.466Z,80.60
2023-05-13T20:37:31.339Z,80.60
2023-05-13T20:40:00.557Z,80.90
2023-05-13T20:42:31.052Z,81.00
2023-05-13T20:45:00.934Z,81.70
2023-05-13T20:47:32.641Z,81.60
2023-05-13T20:50:02.355Z,81.80
2023-05-13T20:52:32.274Z,82.00
2023-05-13T20:55:05.109Z,83.10
2023-05-13T20:57:36.152Z,82.40
2023-05-13T21:00:12.207Z,82.70
2023-05-13T21:02:41.631Z,83.00
2023-05-13T21:05:24.767Z,83.20
2023-05-13T21:07:54.347Z,83.30
2023-05-13T21:10:25.296Z,83.60
2023-05-13T21:12:55.915Z,83.70
2023-05-13T21:15:25.989Z,83.80
2023-05-13T21:17:55.185Z,83.90
2023-05-13T21:20:24.942Z,83.80
2023-05-13T21:22:53.869Z,83.90
2023-05-13T21:25:22.754Z,84.10
2023-05-13T21:27:51.542Z,84.40
2023-05-13T21:30:22.550Z,84.60
2023-05-13T21:32:51.722Z,84.70
2023-05-13T21:35:21.961Z,84.90
2023-05-13T21:37:52.359Z,85.10
2023-05-13T21:40:25.856Z,85.20
2023-05-13T21:42:55.192Z,85.30
2023-05-13T21:45:30.774Z,85.40
2023-05-13T21:48:00.614Z,85.50
2023-05-13T21:50:30.808Z,85.70
2023-05-13T21:52:59.855Z,85.80
2023-05-13T21:55:29.414Z,85.90
2023-05-13T21:57:58.466Z,86.00
2023-05-13T22:00:32.799Z,86.10
2023-05-13T22:03:06.193Z,86.30
2023-05-13T22:05:42.720Z,86.30
2023-05-13T22:08:12.134Z,86.50
2023-05-13T22:10:44.723Z,86.60
2023-05-13T22:13:13.599Z,86.80
2023-05-13T22:15:44.029Z,86.90
2023-05-13T22:18:13.139Z,87.10
2023-05-13T22:20:42.926Z,87.20
2023-05-13T22:23:16.018Z,87.40
2023-05-13T22:25:46.154Z,87.50
2023-05-13T22:28:15.930Z,87.70
2023-05-13T22:30:46.848Z,87.70
2023-05-13T22:33:15.727Z,87.80
2023-05-13T22:35:45.287Z,87.90
2023-05-13T22:38:14.753Z,88.00
2023-05-13T22:40:47.536Z,88.00
2023-05-13T22:43:16.689Z,88.20
2023-05-13T22:45:48.541Z,88.40
2023-05-13T22:48:20.627Z,88.60
2023-05-13T22:50:53.561Z,88.80
2023-05-13T22:53:24.558Z,88.80
2023-05-13T22:55:54.270Z,88.90
2023-05-13T22:58:25.615Z,89.00
2023-05-13T23:00:59.382Z,89.30
2023-05-13T23:03:30.016Z,89.30
2023-05-13T23:06:02.778Z,89.40
2023-05-13T23:08:34.533Z,89.60
2023-05-13T23:11:03.980Z,89.60
2023-05-13T23:13:33.183Z,89.70
2023-05-13T23:16:04.740Z,89.80
2023-05-13T23:18:36.707Z,89.90
2023-05-13T23:21:09.567Z,89.90
2023-05-13T23:23:44.755Z,90.30
2023-05-13T23:26:18.432Z,90.00
2023-05-13T23:28:52.110Z,90.10
2023-05-13T23:31:38.133Z,90.20
2023-05-13T23:34:16.210Z,90.30
2023-05-13T23:37:00.470Z,90.30
2023-05-13T23:39:33.137Z,90.40
2023-05-13T23:42:11.107Z,90.40
2023-05-13T23:44:49.070Z,90.30
2023-05-13T23:47:35.473Z,90.40
2023-05-13T23:50:06.244Z,90.40
2023-05-13T23:52:35.398Z,90.40
2023-05-13T23:55:08.795Z,90.40
2023-05-13T23:57:39.359Z,90.50
